<?xml version="1.0" encoding="UTF-8" standalone="no" ?>
<gpx xmlns="http://www.topografix.com/GPX/1/1" xmlns:xsi="http://www.w3.org/2001/XMLSchema-instance" xsi:schemaLocation="http://www.topografix.com/GPX/1/1 http://www.topografix.com/GPX/1/1/gpx.xsd" version="1.1" creator="VisuGPX - https://www.visugpx.com">
  <metadata>
    <name>Vacances 2021</name>
  </metadata>
  <trk>
    <name><![CDATA[Journal actif: 2021-08-05 17:10]]></name>
    <trkseg>
      <trkpt lat="46.51684" lon="0.27864">
        <ele>105.88</ele>
        <time>2021-08-05T19:10:37Z</time>
      </trkpt>
      <trkpt lat="46.5189" lon="0.27897">
        <ele>112.61</ele>
        <time>2021-08-05T19:10:46Z</time>
      </trkpt>
      <trkpt lat="46.52123" lon="0.27998">
        <ele>120.3</ele>
        <time>2021-08-05T19:10:57Z</time>
      </trkpt>
      <trkpt lat="46.52404" lon="0.28153">
        <ele>127.99</ele>
        <time>2021-08-05T19:11:11Z</time>
      </trkpt>
      <trkpt lat="46.52605" lon="0.28201">
        <ele>133.76</ele>
        <time>2021-08-05T19:11:21Z</time>
      </trkpt>
      <trkpt lat="46.5296" lon="0.2827">
        <ele>129.92</ele>
        <time>2021-08-05T19:11:40Z</time>
      </trkpt>
      <trkpt lat="46.53249" lon="0.28331">
        <ele>120.3</ele>
        <time>2021-08-05T19:11:55Z</time>
      </trkpt>
      <trkpt lat="46.53544" lon="0.28412">
        <ele>110.21</ele>
        <time>2021-08-05T19:12:09Z</time>
      </trkpt>
      <trkpt lat="46.53701" lon="0.28526">
        <ele>115.98</ele>
        <time>2021-08-05T19:12:17Z</time>
      </trkpt>
      <trkpt lat="46.53816" lon="0.28686">
        <ele>122.71</ele>
        <time>2021-08-05T19:12:25Z</time>
      </trkpt>
      <trkpt lat="46.5399" lon="0.29005">
        <ele>130.4</ele>
        <time>2021-08-05T19:12:39Z</time>
      </trkpt>
      <trkpt lat="46.54131" lon="0.29183">
        <ele>135.68</ele>
        <time>2021-08-05T19:12:48Z</time>
      </trkpt>
      <trkpt lat="46.54244" lon="0.29343">
        <ele>141.45</ele>
        <time>2021-08-05T19:12:59Z</time>
      </trkpt>
      <trkpt lat="46.54249" lon="0.2936">
        <ele>140.97</ele>
        <time>2021-08-05T19:13:00Z</time>
      </trkpt>
      <trkpt lat="46.54259" lon="0.29396">
        <ele>140.97</ele>
        <time>2021-08-05T19:13:01Z</time>
      </trkpt>
      <trkpt lat="46.54322" lon="0.2962">
        <ele>141.45</ele>
        <time>2021-08-05T19:13:12Z</time>
      </trkpt>
      <trkpt lat="46.54366" lon="0.29787">
        <ele>141.93</ele>
        <time>2021-08-05T19:13:22Z</time>
      </trkpt>
      <trkpt lat="46.54373" lon="0.29801">
        <ele>141.93</ele>
        <time>2021-08-05T19:13:23Z</time>
      </trkpt>
      <trkpt lat="46.54379" lon="0.29814">
        <ele>141.93</ele>
        <time>2021-08-05T19:13:24Z</time>
      </trkpt>
      <trkpt lat="46.54387" lon="0.29822">
        <ele>140.97</ele>
        <time>2021-08-05T19:13:25Z</time>
      </trkpt>
      <trkpt lat="46.54396" lon="0.29828">
        <ele>140.49</ele>
        <time>2021-08-05T19:13:26Z</time>
      </trkpt>
      <trkpt lat="46.54417" lon="0.29839">
        <ele>140.97</ele>
        <time>2021-08-05T19:13:27Z</time>
      </trkpt>
      <trkpt lat="46.54417" lon="0.29839">
        <ele>140.49</ele>
        <time>2021-08-05T19:13:28Z</time>
      </trkpt>
      <trkpt lat="46.54436" lon="0.29839">
        <ele>140.97</ele>
        <time>2021-08-05T19:13:29Z</time>
      </trkpt>
      <trkpt lat="46.54446" lon="0.29839">
        <ele>141.93</ele>
        <time>2021-08-05T19:13:30Z</time>
      </trkpt>
      <trkpt lat="46.54446" lon="0.29839">
        <ele>141.93</ele>
        <time>2021-08-05T19:13:31Z</time>
      </trkpt>
      <trkpt lat="46.54456" lon="0.29833">
        <ele>141.45</ele>
        <time>2021-08-05T19:13:32Z</time>
      </trkpt>
      <trkpt lat="46.54465" lon="0.29825">
        <ele>140.97</ele>
        <time>2021-08-05T19:13:33Z</time>
      </trkpt>
      <trkpt lat="46.54474" lon="0.29818">
        <ele>140.49</ele>
        <time>2021-08-05T19:13:34Z</time>
      </trkpt>
      <trkpt lat="46.54481" lon="0.29808">
        <ele>140.97</ele>
        <time>2021-08-05T19:13:35Z</time>
      </trkpt>
      <trkpt lat="46.54496" lon="0.29787">
        <ele>141.45</ele>
        <time>2021-08-05T19:13:36Z</time>
      </trkpt>
      <trkpt lat="46.54503" lon="0.29774">
        <ele>141.93</ele>
        <time>2021-08-05T19:13:37Z</time>
      </trkpt>
      <trkpt lat="46.54581" lon="0.29612">
        <ele>143.37</ele>
        <time>2021-08-05T19:13:48Z</time>
      </trkpt>
      <trkpt lat="46.54718" lon="0.29316">
        <ele>138.57</ele>
        <time>2021-08-05T19:14:03Z</time>
      </trkpt>
      <trkpt lat="46.54838" lon="0.29059">
        <ele>134.72</ele>
        <time>2021-08-05T19:14:17Z</time>
      </trkpt>
      <trkpt lat="46.54879" lon="0.28966">
        <ele>132.8</ele>
        <time>2021-08-05T19:14:26Z</time>
      </trkpt>
      <trkpt lat="46.54889" lon="0.28943">
        <ele>132.8</ele>
        <time>2021-08-05T19:14:35Z</time>
      </trkpt>
      <trkpt lat="46.54907" lon="0.289">
        <ele>131.36</ele>
        <time>2021-08-05T19:14:45Z</time>
      </trkpt>
      <trkpt lat="46.54955" lon="0.28797">
        <ele>126.55</ele>
        <time>2021-08-05T19:14:54Z</time>
      </trkpt>
      <trkpt lat="46.55049" lon="0.28614">
        <ele>121.74</ele>
        <time>2021-08-05T19:15:06Z</time>
      </trkpt>
      <trkpt lat="46.55171" lon="0.28449">
        <ele>123.19</ele>
        <time>2021-08-05T19:15:17Z</time>
      </trkpt>
      <trkpt lat="46.55298" lon="0.28382">
        <ele>125.11</ele>
        <time>2021-08-05T19:15:24Z</time>
      </trkpt>
      <trkpt lat="46.55451" lon="0.28387">
        <ele>129.43</ele>
        <time>2021-08-05T19:15:33Z</time>
      </trkpt>
      <trkpt lat="46.55708" lon="0.28486">
        <ele>123.19</ele>
        <time>2021-08-05T19:15:46Z</time>
      </trkpt>
      <trkpt lat="46.55998" lon="0.28596">
        <ele>116.46</ele>
        <time>2021-08-05T19:15:59Z</time>
      </trkpt>
      <trkpt lat="46.56337" lon="0.28701">
        <ele>110.69</ele>
        <time>2021-08-05T19:16:13Z</time>
      </trkpt>
      <trkpt lat="46.56855" lon="0.28837">
        <ele>102.52</ele>
        <time>2021-08-05T19:16:33Z</time>
      </trkpt>
      <trkpt lat="46.57281" lon="0.28946">
        <ele>103</ele>
        <time>2021-08-05T19:16:52Z</time>
      </trkpt>
      <trkpt lat="46.57569" lon="0.29023">
        <ele>104.92</ele>
        <time>2021-08-05T19:17:05Z</time>
      </trkpt>
      <trkpt lat="46.57845" lon="0.29115">
        <ele>107.81</ele>
        <time>2021-08-05T19:17:16Z</time>
      </trkpt>
      <trkpt lat="46.58172" lon="0.29293">
        <ele>111.17</ele>
        <time>2021-08-05T19:17:29Z</time>
      </trkpt>
      <trkpt lat="46.58471" lon="0.29522">
        <ele>115.98</ele>
        <time>2021-08-05T19:17:42Z</time>
      </trkpt>
      <trkpt lat="46.5887" lon="0.29902">
        <ele>113.57</ele>
        <time>2021-08-05T19:18:00Z</time>
      </trkpt>
      <trkpt lat="46.59304" lon="0.3035">
        <ele>110.69</ele>
        <time>2021-08-05T19:18:21Z</time>
      </trkpt>
      <trkpt lat="46.59725" lon="0.30829">
        <ele>115.5</ele>
        <time>2021-08-05T19:18:43Z</time>
      </trkpt>
      <trkpt lat="46.60147" lon="0.31384">
        <ele>124.15</ele>
        <time>2021-08-05T19:19:07Z</time>
      </trkpt>
      <trkpt lat="46.60484" lon="0.31878">
        <ele>125.11</ele>
        <time>2021-08-05T19:19:26Z</time>
      </trkpt>
      <trkpt lat="46.60767" lon="0.32342">
        <ele>121.74</ele>
        <time>2021-08-05T19:19:43Z</time>
      </trkpt>
      <trkpt lat="46.61062" lon="0.32884">
        <ele>115.98</ele>
        <time>2021-08-05T19:20:03Z</time>
      </trkpt>
      <trkpt lat="46.61271" lon="0.33302">
        <ele>112.61</ele>
        <time>2021-08-05T19:20:18Z</time>
      </trkpt>
      <trkpt lat="46.61516" lon="0.33801">
        <ele>106.36</ele>
        <time>2021-08-05T19:20:35Z</time>
      </trkpt>
      <trkpt lat="46.61721" lon="0.34162">
        <ele>107.32</ele>
        <time>2021-08-05T19:20:48Z</time>
      </trkpt>
      <trkpt lat="46.6195" lon="0.34468">
        <ele>111.17</ele>
        <time>2021-08-05T19:21:01Z</time>
      </trkpt>
      <trkpt lat="46.62195" lon="0.34717">
        <ele>107.81</ele>
        <time>2021-08-05T19:21:13Z</time>
      </trkpt>
      <trkpt lat="46.62482" lon="0.34931">
        <ele>104.44</ele>
        <time>2021-08-05T19:21:26Z</time>
      </trkpt>
      <trkpt lat="46.62807" lon="0.35089">
        <ele>97.23</ele>
        <time>2021-08-05T19:21:40Z</time>
      </trkpt>
      <trkpt lat="46.6315" lon="0.35182">
        <ele>87.14</ele>
        <time>2021-08-05T19:21:54Z</time>
      </trkpt>
      <trkpt lat="46.63683" lon="0.3532">
        <ele>65.51</ele>
        <time>2021-08-05T19:22:15Z</time>
      </trkpt>
      <trkpt lat="46.64118" lon="0.35453">
        <ele>76.08</ele>
        <time>2021-08-05T19:22:33Z</time>
      </trkpt>
      <trkpt lat="46.64495" lon="0.35537">
        <ele>86.18</ele>
        <time>2021-08-05T19:22:48Z</time>
      </trkpt>
      <trkpt lat="46.64886" lon="0.35568">
        <ele>96.75</ele>
        <time>2021-08-05T19:23:03Z</time>
      </trkpt>
      <trkpt lat="46.65315" lon="0.35546">
        <ele>101.56</ele>
        <time>2021-08-05T19:23:20Z</time>
      </trkpt>
      <trkpt lat="46.65762" lon="0.35536">
        <ele>93.87</ele>
        <time>2021-08-05T19:23:38Z</time>
      </trkpt>
      <trkpt lat="46.66213" lon="0.35599">
        <ele>88.1</ele>
        <time>2021-08-05T19:23:55Z</time>
      </trkpt>
      <trkpt lat="46.66758" lon="0.35708">
        <ele>78.97</ele>
        <time>2021-08-05T19:24:18Z</time>
      </trkpt>
      <trkpt lat="46.67057" lon="0.35777">
        <ele>77.04</ele>
        <time>2021-08-05T19:24:30Z</time>
      </trkpt>
      <trkpt lat="46.67088" lon="0.35784">
        <ele>77.52</ele>
        <time>2021-08-05T19:24:33Z</time>
      </trkpt>
      <trkpt lat="46.67101" lon="0.35788">
        <ele>77.52</ele>
        <time>2021-08-05T19:24:34Z</time>
      </trkpt>
      <trkpt lat="46.67113" lon="0.35799">
        <ele>78</ele>
        <time>2021-08-05T19:24:35Z</time>
      </trkpt>
      <trkpt lat="46.67122" lon="0.3581">
        <ele>78</ele>
        <time>2021-08-05T19:24:36Z</time>
      </trkpt>
      <trkpt lat="46.6713" lon="0.35822">
        <ele>78.97</ele>
        <time>2021-08-05T19:24:37Z</time>
      </trkpt>
      <trkpt lat="46.67138" lon="0.35834">
        <ele>79.45</ele>
        <time>2021-08-05T19:24:38Z</time>
      </trkpt>
      <trkpt lat="46.67139" lon="0.3586">
        <ele>79.93</ele>
        <time>2021-08-05T19:24:39Z</time>
      </trkpt>
      <trkpt lat="46.6714" lon="0.35875">
        <ele>81.37</ele>
        <time>2021-08-05T19:24:40Z</time>
      </trkpt>
      <trkpt lat="46.67137" lon="0.3589">
        <ele>81.37</ele>
        <time>2021-08-05T19:24:41Z</time>
      </trkpt>
      <trkpt lat="46.67133" lon="0.35907">
        <ele>80.89</ele>
        <time>2021-08-05T19:24:42Z</time>
      </trkpt>
      <trkpt lat="46.67128" lon="0.3592">
        <ele>80.41</ele>
        <time>2021-08-05T19:24:43Z</time>
      </trkpt>
      <trkpt lat="46.67119" lon="0.35931">
        <ele>81.37</ele>
        <time>2021-08-05T19:24:44Z</time>
      </trkpt>
      <trkpt lat="46.67119" lon="0.35931">
        <ele>81.37</ele>
        <time>2021-08-05T19:24:45Z</time>
      </trkpt>
      <trkpt lat="46.671" lon="0.35953">
        <ele>80.89</ele>
        <time>2021-08-05T19:24:46Z</time>
      </trkpt>
      <trkpt lat="46.671" lon="0.35953">
        <ele>79.93</ele>
        <time>2021-08-05T19:24:47Z</time>
      </trkpt>
      <trkpt lat="46.67088" lon="0.3596">
        <ele>79.93</ele>
        <time>2021-08-05T19:24:48Z</time>
      </trkpt>
      <trkpt lat="46.67012" lon="0.35993">
        <ele>78.97</ele>
        <time>2021-08-05T19:24:57Z</time>
      </trkpt>
    </trkseg>
  </trk>
</gpx>